sensor_id;sensor_type;location;lat;lon;timestamp;P1;durP1;ratioP1;P2;durP2;ratioP2
13108;SDS011;6620;53.734;11.510;2022-12-29T00:01:14;4.60;;;3.40;;
13108;SDS011;6620;53.734;11.510;2022-12-29T00:03:39;5.57;;;3.47;;
13108;SDS011;6620;53.734;11.510;2022-12-29T00:06:04;5.40;;;3.93;;
13108;SDS011;6620;53.734;11.510;2022-12-29T00:08:29;3.97;;;3.60;;
13108;SDS011;6620;53.734;11.510;2022-12-29T00:11:17;5.70;;;4.18;;
13108;SDS011;6620;53.734;11.510;2022-12-29T00:13:42;7.03;;;4.03;;
13108;SDS011;6620;53.734;11.510;2022-12-29T00:16:26;5.97;;;2.17;;
13108;SDS011;6620;53.734;11.510;2022-12-29T00:18:52;3.60;;;2.88;;
13108;SDS011;6620;53.734;11.510;2022-12-29T00:21:18;7.38;;;3.88;;
13108;SDS011;6620;53.734;11.510;2022-12-29T00:24:02;6.03;;;3.85;;
13108;SDS011;6620;53.734;11.510;2022-12-29T00:26:47;4.00;;;2.80;;
13108;SDS011;6620;53.734;11.510;2022-12-29T00:29:30;6.07;;;4.50;;
13108;SDS011;6620;53.734;11.510;2022-12-29T00:32:14;6.72;;;4.90;;
13108;SDS011;6620;53.734;11.510;2022-12-29T00:34:58;5.35;;;4.07;;
13108;SDS011;6620;53.734;11.510;2022-12-29T00:37:43;3.78;;;2.67;;
13108;SDS011;6620;53.734;11.510;2022-12-29T00:40:29;5.35;;;2.22;;
13108;SDS011;6620;53.734;11.510;2022-12-29T00:43:13;8.60;;;3.58;;
13108;SDS011;6620;53.734;11.510;2022-12-29T00:45:56;4.60;;;4.20;;
13108;SDS011;6620;53.734;11.510;2022-12-29T00:48:22;4.95;;;3.22;;
13108;SDS011;6620;53.734;11.510;2022-12-29T00:51:06;4.95;;;3.10;;
13108;SDS011;6620;53.734;11.510;2022-12-29T00:53:31;6.13;;;3.78;;
13108;SDS011;6620;53.734;11.510;2022-12-29T00:55:56;5.70;;;4.97;;
13108;SDS011;6620;53.734;11.510;2022-12-29T00:58:21;7.83;;;4.73;;
13108;SDS011;6620;53.734;11.510;2022-12-29T01:00:47;4.90;;;4.10;;
13108;SDS011;6620;53.734;11.510;2022-12-29T01:03:12;3.57;;;2.23;;
13108;SDS011;6620;53.734;11.510;2022-12-29T01:05:37;5.90;;;3.30;;
13108;SDS011;6620;53.734;11.510;2022-12-29T01:08:02;5.38;;;4.20;;
13108;SDS011;6620;53.734;11.510;2022-12-29T01:10:30;5.07;;;3.63;;
13108;SDS011;6620;53.734;11.510;2022-12-29T01:12:55;6.47;;;4.47;;
13108;SDS011;6620;53.734;11.510;2022-12-29T01:15:21;3.70;;;3.28;;
13108;SDS011;6620;53.734;11.510;2022-12-29T01:17:46;5.70;;;2.80;;
13108;SDS011;6620;53.734;11.510;2022-12-29T01:20:11;5.40;;;4.13;;
13108;SDS011;6620;53.734;11.510;2022-12-29T01:22:37;7.70;;;4.95;;
13108;SDS011;6620;53.734;11.510;2022-12-29T01:25:02;6.78;;;4.55;;
13108;SDS011;6620;53.734;11.510;2022-12-29T01:27:28;8.30;;;2.85;;
13108;SDS011;6620;53.734;11.510;2022-12-29T01:29:53;7.13;;;4.40;;
13108;SDS011;6620;53.734;11.510;2022-12-29T01:32:18;6.47;;;4.20;;
13108;SDS011;6620;53.734;11.510;2022-12-29T01:34:43;5.63;;;4.20;;
13108;SDS011;6620;53.734;11.510;2022-12-29T01:37:08;6.70;;;4.70;;
13108;SDS011;6620;53.734;11.510;2022-12-29T01:39:34;4.85;;;3.45;;
13108;SDS011;6620;53.734;11.510;2022-12-29T01:41:59;7.93;;;4.80;;
13108;SDS011;6620;53.734;11.510;2022-12-29T01:47:08;4.85;;;3.70;;
13108;SDS011;6620;53.734;11.510;2022-12-29T01:49:33;8.20;;;4.10;;
13108;SDS011;6620;53.734;11.510;2022-12-29T01:52:00;8.73;;;4.40;;
13108;SDS011;6620;53.734;11.510;2022-12-29T01:54:28;4.53;;;3.03;;
13108;SDS011;6620;53.734;11.510;2022-12-29T01:56:58;6.05;;;3.53;;
13108;SDS011;6620;53.734;11.510;2022-12-29T01:59:28;8.32;;;4.25;;
13108;SDS011;6620;53.734;11.510;2022-12-29T02:01:54;4.95;;;3.83;;
13108;SDS011;6620;53.734;11.510;2022-12-29T02:04:19;6.40;;;3.80;;
13108;SDS011;6620;53.734;11.510;2022-12-29T02:06:49;7.00;;;4.10;;
13108;SDS011;6620;53.734;11.510;2022-12-29T02:09:16;4.25;;;2.28;;
13108;SDS011;6620;53.734;11.510;2022-12-29T02:11:41;4.23;;;3.87;;
13108;SDS011;6620;53.734;11.510;2022-12-29T02:14:09;7.73;;;4.30;;
13108;SDS011;6620;53.734;11.510;2022-12-29T02:19:17;9.63;;;3.80;;
13108;SDS011;6620;53.734;11.510;2022-12-29T02:22:30;4.03;;;2.63;;
13108;SDS011;6620;53.734;11.510;2022-12-29T02:29:53;5.40;;;3.03;;
13108;SDS011;6620;53.734;11.510;2022-12-29T02:32:28;4.97;;;2.63;;
13108;SDS011;6620;53.734;11.510;2022-12-29T02:35:15;2.70;;;2.50;;
13108;SDS011;6620;53.734;11.510;2022-12-29T02:37:54;4.57;;;3.25;;
13108;SDS011;6620;53.734;11.510;2022-12-29T02:40:24;4.50;;;3.28;;
13108;SDS011;6620;53.734;11.510;2022-12-29T02:42:59;5.18;;;3.10;;
13108;SDS011;6620;53.734;11.510;2022-12-29T02:45:32;5.97;;;3.50;;
13108;SDS011;6620;53.734;11.510;2022-12-29T02:50:38;4.93;;;3.05;;
13108;SDS011;6620;53.734;11.510;2022-12-29T02:53:05;3.25;;;2.72;;
13108;SDS011;6620;53.734;11.510;2022-12-29T02:55:31;2.90;;;2.53;;
13108;SDS011;6620;53.734;11.510;2022-12-29T02:58:12;5.35;;;2.83;;
13108;SDS011;6620;53.734;11.510;2022-12-29T03:00:41;2.17;;;1.98;;
13108;SDS011;6620;53.734;11.510;2022-12-29T03:03:15;4.53;;;2.47;;
13108;SDS011;6620;53.734;11.510;2022-12-29T03:08:32;1.53;;;1.23;;
13108;SDS011;6620;53.734;11.510;2022-12-29T03:11:00;5.97;;;2.42;;
13108;SDS011;6620;53.734;11.510;2022-12-29T03:13:33;3.67;;;2.78;;
13108;SDS011;6620;53.734;11.510;2022-12-29T03:16:35;4.93;;;2.53;;
13108;SDS011;6620;53.734;11.510;2022-12-29T03:19:04;3.88;;;2.10;;
13108;SDS011;6620;53.734;11.510;2022-12-29T03:24:17;1.65;;;1.55;;
13108;SDS011;6620;53.734;11.510;2022-12-29T03:26:43;2.72;;;1.02;;
13108;SDS011;6620;53.734;11.510;2022-12-29T03:29:10;4.28;;;2.22;;
13108;SDS011;6620;53.734;11.510;2022-12-29T03:31:36;4.45;;;2.20;;
13108;SDS011;6620;53.734;11.510;2022-12-29T03:34:02;4.88;;;2.38;;
13108;SDS011;6620;53.734;11.510;2022-12-29T03:36:33;4.40;;;2.20;;
13108;SDS011;6620;53.734;11.510;2022-12-29T03:39:06;3.53;;;2.45;;
13108;SDS011;6620;53.734;11.510;2022-12-29T03:41:33;2.63;;;1.70;;
13108;SDS011;6620;53.734;11.510;2022-12-29T03:43:59;2.40;;;2.15;;
13108;SDS011;6620;53.734;11.510;2022-12-29T03:46:24;2.70;;;2.27;;
13108;SDS011;6620;53.734;11.510;2022-12-29T03:48:49;3.13;;;2.40;;
13108;SDS011;6620;53.734;11.510;2022-12-29T03:51:14;3.00;;;2.23;;
13108;SDS011;6620;53.734;11.510;2022-12-29T03:53:39;2.75;;;2.30;;
13108;SDS011;6620;53.734;11.510;2022-12-29T03:56:04;6.03;;;1.90;;
13108;SDS011;6620;53.734;11.510;2022-12-29T03:58:30;3.53;;;0.85;;
13108;SDS011;6620;53.734;11.510;2022-12-29T04:00:55;6.03;;;2.73;;
13108;SDS011;6620;53.734;11.510;2022-12-29T04:03:20;4.87;;;1.47;;
13108;SDS011;6620;53.734;11.510;2022-12-29T04:05:45;2.23;;;2.03;;
13108;SDS011;6620;53.734;11.510;2022-12-29T04:08:10;2.67;;;1.87;;
13108;SDS011;6620;53.734;11.510;2022-12-29T04:10:36;2.33;;;2.07;;
13108;SDS011;6620;53.734;11.510;2022-12-29T04:13:01;2.80;;;1.55;;
13108;SDS011;6620;53.734;11.510;2022-12-29T04:15:26;3.80;;;2.03;;
13108;SDS011;6620;53.734;11.510;2022-12-29T04:17:51;3.60;;;1.95;;
13108;SDS011;6620;53.734;11.510;2022-12-29T04:20:16;3.08;;;1.85;;
13108;SDS011;6620;53.734;11.510;2022-12-29T04:23:01;2.70;;;1.88;;
13108;SDS011;6620;53.734;11.510;2022-12-29T04:25:26;3.20;;;2.20;;
13108;SDS011;6620;53.734;11.510;2022-12-29T04:27:52;1.17;;;1.03;;
13108;SDS011;6620;53.734;11.510;2022-12-29T04:30:17;4.23;;;1.90;;
13108;SDS011;6620;53.734;11.510;2022-12-29T04:32:42;2.23;;;1.53;;
13108;SDS011;6620;53.734;11.510;2022-12-29T04:35:07;1.67;;;1.43;;
13108;SDS011;6620;53.734;11.510;2022-12-29T04:37:32;3.90;;;1.98;;
13108;SDS011;6620;53.734;11.510;2022-12-29T04:39:58;2.45;;;1.63;;
13108;SDS011;6620;53.734;11.510;2022-12-29T04:42:23;3.43;;;2.10;;
13108;SDS011;6620;53.734;11.510;2022-12-29T04:44:48;1.50;;;1.20;;
13108;SDS011;6620;53.734;11.510;2022-12-29T04:47:13;1.50;;;1.40;;
13108;SDS011;6620;53.734;11.510;2022-12-29T04:49:38;1.40;;;1.27;;
13108;SDS011;6620;53.734;11.510;2022-12-29T04:52:03;0.90;;;0.90;;
13108;SDS011;6620;53.734;11.510;2022-12-29T04:54:29;1.95;;;1.33;;
13108;SDS011;6620;53.734;11.510;2022-12-29T04:56:54;1.30;;;1.00;;
13108;SDS011;6620;53.734;11.510;2022-12-29T04:59:19;2.35;;;1.60;;
13108;SDS011;6620;53.734;11.510;2022-12-29T05:01:44;6.20;;;1.90;;
13108;SDS011;6620;53.734;11.510;2022-12-29T05:04:09;2.27;;;1.60;;
13108;SDS011;6620;53.734;11.510;2022-12-29T05:06:34;0.77;;;0.70;;
13108;SDS011;6620;53.734;11.510;2022-12-29T05:09:00;2.13;;;1.13;;
13108;SDS011;6620;53.734;11.510;2022-12-29T05:11:25;2.43;;;1.67;;
13108;SDS011;6620;53.734;11.510;2022-12-29T05:13:50;4.53;;;1.20;;
13108;SDS011;6620;53.734;11.510;2022-12-29T05:16:15;4.70;;;1.50;;
13108;SDS011;6620;53.734;11.510;2022-12-29T05:18:40;2.10;;;1.50;;
13108;SDS011;6620;53.734;11.510;2022-12-29T05:21:05;1.20;;;1.10;;
13108;SDS011;6620;53.734;11.510;2022-12-29T05:23:31;2.30;;;1.55;;
13108;SDS011;6620;53.734;11.510;2022-12-29T05:25:56;3.73;;;1.33;;
13108;SDS011;6620;53.734;11.510;2022-12-29T05:28:21;1.43;;;1.33;;
13108;SDS011;6620;53.734;11.510;2022-12-29T05:30:49;1.55;;;1.10;;
13108;SDS011;6620;53.734;11.510;2022-12-29T05:33:15;2.60;;;1.58;;
13108;SDS011;6620;53.734;11.510;2022-12-29T05:35:40;1.17;;;1.05;;
13108;SDS011;6620;53.734;11.510;2022-12-29T05:38:05;1.80;;;1.30;;
13108;SDS011;6620;53.734;11.510;2022-12-29T05:40:30;0.80;;;0.70;;
13108;SDS011;6620;53.734;11.510;2022-12-29T05:42:56;3.30;;;2.10;;
13108;SDS011;6620;53.734;11.510;2022-12-29T05:45:21;3.73;;;1.13;;
13108;SDS011;6620;53.734;11.510;2022-12-29T05:47:46;1.47;;;1.37;;
13108;SDS011;6620;53.734;11.510;2022-12-29T05:50:11;2.90;;;2.20;;
13108;SDS011;6620;53.734;11.510;2022-12-29T05:52:36;2.78;;;1.40;;
13108;SDS011;6620;53.734;11.510;2022-12-29T05:55:02;4.13;;;1.45;;
13108;SDS011;6620;53.734;11.510;2022-12-29T05:57:27;2.30;;;0.65;;
13108;SDS011;6620;53.734;11.510;2022-12-29T05:59:52;2.40;;;1.73;;
13108;SDS011;6620;53.734;11.510;2022-12-29T06:02:17;3.77;;;1.70;;
13108;SDS011;6620;53.734;11.510;2022-12-29T06:04:42;3.60;;;1.60;;
13108;SDS011;6620;53.734;11.510;2022-12-29T06:07:07;3.83;;;1.77;;
13108;SDS011;6620;53.734;11.510;2022-12-29T06:09:33;6.23;;;2.77;;
13108;SDS011;6620;53.734;11.510;2022-12-29T06:11:58;2.60;;;0.98;;
13108;SDS011;6620;53.734;11.510;2022-12-29T06:14:23;38.65;;;1.98;;
13108;SDS011;6620;53.734;11.510;2022-12-29T06:16:48;3.38;;;2.05;;
13108;SDS011;6620;53.734;11.510;2022-12-29T06:19:13;3.73;;;2.87;;
13108;SDS011;6620;53.734;11.510;2022-12-29T06:21:39;5.35;;;2.22;;
13108;SDS011;6620;53.734;11.510;2022-12-29T06:24:04;3.85;;;1.77;;
13108;SDS011;6620;53.734;11.510;2022-12-29T06:26:30;1.80;;;1.50;;
13108;SDS011;6620;53.734;11.510;2022-12-29T06:28:55;2.92;;;2.55;;
13108;SDS011;6620;53.734;11.510;2022-12-29T06:31:20;2.47;;;2.17;;
13108;SDS011;6620;53.734;11.510;2022-12-29T06:33:46;2.53;;;1.50;;
13108;SDS011;6620;53.734;11.510;2022-12-29T06:36:11;2.10;;;1.77;;
13108;SDS011;6620;53.734;11.510;2022-12-29T06:38:36;3.80;;;2.43;;
13108;SDS011;6620;53.734;11.510;2022-12-29T06:41:01;3.03;;;1.83;;
13108;SDS011;6620;53.734;11.510;2022-12-29T06:43:26;3.13;;;2.27;;
13108;SDS011;6620;53.734;11.510;2022-12-29T06:45:52;3.43;;;2.23;;
13108;SDS011;6620;53.734;11.510;2022-12-29T06:48:17;8.90;;;1.20;;
13108;SDS011;6620;53.734;11.510;2022-12-29T06:50:42;2.27;;;1.27;;
13108;SDS011;6620;53.734;11.510;2022-12-29T06:53:07;4.57;;;1.73;;
13108;SDS011;6620;53.734;11.510;2022-12-29T06:55:33;2.20;;;1.48;;
13108;SDS011;6620;53.734;11.510;2022-12-29T06:57:58;2.20;;;1.27;;
13108;SDS011;6620;53.734;11.510;2022-12-29T07:00:24;2.17;;;1.85;;
13108;SDS011;6620;53.734;11.510;2022-12-29T07:02:49;0.65;;;0.65;;
13108;SDS011;6620;53.734;11.510;2022-12-29T07:05:15;1.90;;;1.20;;
13108;SDS011;6620;53.734;11.510;2022-12-29T07:07:40;3.30;;;1.63;;
13108;SDS011;6620;53.734;11.510;2022-12-29T07:10:05;1.40;;;1.30;;
13108;SDS011;6620;53.734;11.510;2022-12-29T07:12:30;3.08;;;1.08;;
13108;SDS011;6620;53.734;11.510;2022-12-29T07:14:56;3.70;;;1.17;;
13108;SDS011;6620;53.734;11.510;2022-12-29T07:17:21;1.80;;;1.13;;
13108;SDS011;6620;53.734;11.510;2022-12-29T07:19:46;2.50;;;1.37;;
13108;SDS011;6620;53.734;11.510;2022-12-29T07:22:11;3.00;;;1.57;;
13108;SDS011;6620;53.734;11.510;2022-12-29T07:24:36;3.03;;;1.58;;
13108;SDS011;6620;53.734;11.510;2022-12-29T07:27:02;1.98;;;1.50;;
13108;SDS011;6620;53.734;11.510;2022-12-29T07:29:27;2.35;;;1.35;;
13108;SDS011;6620;53.734;11.510;2022-12-29T07:31:52;1.65;;;1.55;;
13108;SDS011;6620;53.734;11.510;2022-12-29T07:34:17;2.93;;;1.70;;
13108;SDS011;6620;53.734;11.510;2022-12-29T07:36:43;1.70;;;1.60;;
13108;SDS011;6620;53.734;11.510;2022-12-29T07:39:08;2.05;;;1.25;;
13108;SDS011;6620;53.734;11.510;2022-12-29T07:41:33;2.73;;;1.40;;
13108;SDS011;6620;53.734;11.510;2022-12-29T07:43:59;4.95;;;1.23;;
13108;SDS011;6620;53.734;11.510;2022-12-29T07:46:24;2.23;;;1.20;;
13108;SDS011;6620;53.734;11.510;2022-12-29T07:48:50;4.57;;;1.77;;
13108;SDS011;6620;53.734;11.510;2022-12-29T07:51:15;1.60;;;1.27;;
13108;SDS011;6620;53.734;11.510;2022-12-29T07:53:40;1.67;;;0.90;;
13108;SDS011;6620;53.734;11.510;2022-12-29T07:56:05;4.30;;;1.77;;
13108;SDS011;6620;53.734;11.510;2022-12-29T07:58:31;0.80;;;0.80;;
13108;SDS011;6620;53.734;11.510;2022-12-29T08:00:56;2.13;;;1.20;;
13108;SDS011;6620;53.734;11.510;2022-12-29T08:03:21;1.38;;;1.27;;
13108;SDS011;6620;53.734;11.510;2022-12-29T08:05:47;1.15;;;0.95;;
13108;SDS011;6620;53.734;11.510;2022-12-29T08:08:12;1.20;;;1.10;;
13108;SDS011;6620;53.734;11.510;2022-12-29T08:10:37;3.73;;;1.40;;
13108;SDS011;6620;53.734;11.510;2022-12-29T08:13:02;0.90;;;0.80;;
13108;SDS011;6620;53.734;11.510;2022-12-29T08:15:27;1.35;;;0.98;;
13108;SDS011;6620;53.734;11.510;2022-12-29T08:17:53;0.75;;;0.63;;
13108;SDS011;6620;53.734;11.510;2022-12-29T08:20:18;1.65;;;1.02;;
13108;SDS011;6620;53.734;11.510;2022-12-29T08:22:43;0.90;;;0.83;;
13108;SDS011;6620;53.734;11.510;2022-12-29T08:25:08;0.60;;;0.20;;
13108;SDS011;6620;53.734;11.510;2022-12-29T08:27:33;0.70;;;0.50;;
13108;SDS011;6620;53.734;11.510;2022-12-29T08:29:58;0.80;;;0.55;;
13108;SDS011;6620;53.734;11.510;2022-12-29T08:32:25;1.92;;;0.98;;
13108;SDS011;6620;53.734;11.510;2022-12-29T08:34:51;2.28;;;0.93;;
13108;SDS011;6620;53.734;11.510;2022-12-29T08:37:16;1.73;;;1.07;;
13108;SDS011;6620;53.734;11.510;2022-12-29T08:39:41;0.50;;;0.50;;
13108;SDS011;6620;53.734;11.510;2022-12-29T08:42:06;1.17;;;0.77;;
13108;SDS011;6620;53.734;11.510;2022-12-29T08:44:32;2.43;;;1.00;;
13108;SDS011;6620;53.734;11.510;2022-12-29T08:46:57;1.73;;;1.20;;
13108;SDS011;6620;53.734;11.510;2022-12-29T08:49:22;2.73;;;0.77;;
13108;SDS011;6620;53.734;11.510;2022-12-29T08:51:47;0.60;;;0.60;;
13108;SDS011;6620;53.734;11.510;2022-12-29T08:54:12;5.63;;;2.13;;
13108;SDS011;6620;53.734;11.510;2022-12-29T08:56:37;3.57;;;1.13;;
13108;SDS011;6620;53.734;11.510;2022-12-29T08:59:03;2.17;;;1.00;;
13108;SDS011;6620;53.734;11.510;2022-12-29T09:01:28;1.30;;;1.20;;
13108;SDS011;6620;53.734;11.510;2022-12-29T09:03:53;3.33;;;1.33;;
13108;SDS011;6620;53.734;11.510;2022-12-29T09:06:19;0.98;;;0.52;;
13108;SDS011;6620;53.734;11.510;2022-12-29T09:08:44;2.00;;;0.87;;
13108;SDS011;6620;53.734;11.510;2022-12-29T09:11:12;1.60;;;0.97;;
13108;SDS011;6620;53.734;11.510;2022-12-29T09:13:38;1.27;;;0.70;;
13108;SDS011;6620;53.734;11.510;2022-12-29T09:16:03;0.95;;;0.38;;
13108;SDS011;6620;53.734;11.510;2022-12-29T09:18:29;0.77;;;0.50;;
13108;SDS011;6620;53.734;11.510;2022-12-29T09:20:57;2.92;;;0.30;;
13108;SDS011;6620;53.734;11.510;2022-12-29T09:23:23;0.47;;;0.43;;
13108;SDS011;6620;53.734;11.510;2022-12-29T09:25:48;0.70;;;0.40;;
13108;SDS011;6620;53.734;11.510;2022-12-29T09:28:13;0.68;;;0.30;;
13108;SDS011;6620;53.734;11.510;2022-12-29T09:30:38;4.90;;;1.23;;
13108;SDS011;6620;53.734;11.510;2022-12-29T09:33:04;1.17;;;0.40;;
13108;SDS011;6620;53.734;11.510;2022-12-29T09:35:29;3.83;;;0.77;;
13108;SDS011;6620;53.734;11.510;2022-12-29T09:37:54;0.90;;;0.75;;
13108;SDS011;6620;53.734;11.510;2022-12-29T09:40:24;1.90;;;0.90;;
13108;SDS011;6620;53.734;11.510;2022-12-29T09:45:41;2.95;;;1.08;;
13108;SDS011;6620;53.734;11.510;2022-12-29T09:48:11;1.10;;;0.70;;
13108;SDS011;6620;53.734;11.510;2022-12-29T09:50:38;4.63;;;1.67;;
13108;SDS011;6620;53.734;11.510;2022-12-29T09:55:36;1.80;;;0.27;;
13108;SDS011;6620;53.734;11.510;2022-12-29T09:58:04;0.98;;;0.50;;
13108;SDS011;6620;53.734;11.510;2022-12-29T10:00:38;1.35;;;0.50;;
13108;SDS011;6620;53.734;11.510;2022-12-29T10:03:06;1.02;;;0.40;;
13108;SDS011;6620;53.734;11.510;2022-12-29T10:05:39;0.88;;;0.20;;
13108;SDS011;6620;53.734;11.510;2022-12-29T10:08:10;2.28;;;0.30;;
13108;SDS011;6620;53.734;11.510;2022-12-29T10:10:40;2.80;;;0.52;;
13108;SDS011;6620;53.734;11.510;2022-12-29T10:15:58;0.73;;;0.20;;
13108;SDS011;6620;53.734;11.510;2022-12-29T10:20:56;1.20;;;0.10;;
13108;SDS011;6620;53.734;11.510;2022-12-29T10:23:42;1.38;;;0.10;;
13108;SDS011;6620;53.734;11.510;2022-12-29T10:26:11;0.73;;;0.22;;
13108;SDS011;6620;53.734;11.510;2022-12-29T10:28:38;0.85;;;0.10;;
13108;SDS011;6620;53.734;11.510;2022-12-29T10:31:06;0.47;;;0.08;;
13108;SDS011;6620;53.734;11.510;2022-12-29T10:33:35;0.22;;;0.10;;
13108;SDS011;6620;53.734;11.510;2022-12-29T10:36:12;3.38;;;0.28;;
13108;SDS011;6620;53.734;11.510;2022-12-29T10:38:40;1.17;;;0.28;;
13108;SDS011;6620;53.734;11.510;2022-12-29T10:41:23;1.02;;;0.45;;
13108;SDS011;6620;53.734;11.510;2022-12-29T10:43:51;2.70;;;0.32;;
13108;SDS011;6620;53.734;11.510;2022-12-29T10:46:18;5.13;;;0.40;;
13108;SDS011;6620;53.734;11.510;2022-12-29T10:48:44;0.13;;;0.10;;
13108;SDS011;6620;53.734;11.510;2022-12-29T10:51:20;0.82;;;0.20;;
13108;SDS011;6620;53.734;11.510;2022-12-29T10:53:46;4.20;;;0.40;;
13108;SDS011;6620;53.734;11.510;2022-12-29T10:58:58;1.60;;;0.20;;
13108;SDS011;6620;53.734;11.510;2022-12-29T11:01:31;0.65;;;0.20;;
13108;SDS011;6620;53.734;11.510;2022-12-29T11:04:03;0.55;;;0.25;;
13108;SDS011;6620;53.734;11.510;2022-12-29T11:06:30;2.97;;;0.38;;
13108;SDS011;6620;53.734;11.510;2022-12-29T11:08:57;2.60;;;0.30;;
13108;SDS011;6620;53.734;11.510;2022-12-29T11:11:28;6.07;;;0.43;;
13108;SDS011;6620;53.734;11.510;2022-12-29T11:13:58;2.17;;;0.45;;
13108;SDS011;6620;53.734;11.510;2022-12-29T11:16:31;2.75;;;0.30;;
13108;SDS011;6620;53.734;11.510;2022-12-29T11:18:56;4.72;;;0.43;;
13108;SDS011;6620;53.734;11.510;2022-12-29T11:21:26;0.88;;;0.40;;
13108;SDS011;6620;53.734;11.510;2022-12-29T11:24:34;1.70;;;0.50;;
13108;SDS011;6620;53.734;11.510;2022-12-29T11:26:40;0.68;;;0.30;;
13108;SDS011;6620;53.734;11.510;2022-12-29T11:31:41;1.13;;;0.35;;
13108;SDS011;6620;53.734;11.510;2022-12-29T11:34:07;5.85;;;0.77;;
13108;SDS011;6620;53.734;11.510;2022-12-29T11:36:32;7.15;;;0.38;;
13108;SDS011;6620;53.734;11.510;2022-12-29T11:38:58;3.70;;;0.55;;
13108;SDS011;6620;53.734;11.510;2022-12-29T11:41:24;1.93;;;0.43;;
13108;SDS011;6620;53.734;11.510;2022-12-29T11:43:50;1.65;;;0.28;;
13108;SDS011;6620;53.734;11.510;2022-12-29T11:46:18;3.78;;;1.50;;
13108;SDS011;6620;53.734;11.510;2022-12-29T11:48:44;4.68;;;1.33;;
13108;SDS011;6620;53.734;11.510;2022-12-29T11:51:11;4.50;;;0.50;;
13108;SDS011;6620;53.734;11.510;2022-12-29T11:53:42;2.10;;;0.20;;
13108;SDS011;6620;53.734;11.510;2022-12-29T11:56:08;3.25;;;0.40;;
13108;SDS011;6620;53.734;11.510;2022-12-29T11:58:36;5.22;;;0.43;;
13108;SDS011;6620;53.734;11.510;2022-12-29T12:01:21;4.82;;;0.50;;
13108;SDS011;6620;53.734;11.510;2022-12-29T12:06:26;1.80;;;0.38;;
13108;SDS011;6620;53.734;11.510;2022-12-29T12:08:56;2.97;;;0.40;;
13108;SDS011;6620;53.734;11.510;2022-12-29T12:11:27;4.28;;;0.52;;
13108;SDS011;6620;53.734;11.510;2022-12-29T12:14:23;4.70;;;1.30;;
13108;SDS011;6620;53.734;11.510;2022-12-29T12:16:48;3.15;;;0.40;;
13108;SDS011;6620;53.734;11.510;2022-12-29T12:22:01;5.43;;;0.93;;
13108;SDS011;6620;53.734;11.510;2022-12-29T12:27:14;3.47;;;0.43;;
13108;SDS011;6620;53.734;11.510;2022-12-29T12:29:50;3.30;;;1.17;;
13108;SDS011;6620;53.734;11.510;2022-12-29T12:32:22;6.72;;;0.60;;
13108;SDS011;6620;53.734;11.510;2022-12-29T12:34:49;5.05;;;0.52;;
13108;SDS011;6620;53.734;11.510;2022-12-29T12:44:52;3.20;;;0.60;;
13108;SDS011;6620;53.734;11.510;2022-12-29T12:47:35;2.65;;;0.50;;
13108;SDS011;6620;53.734;11.510;2022-12-29T12:52:41;6.00;;;0.38;;
13108;SDS011;6620;53.734;11.510;2022-12-29T12:55:22;2.70;;;0.40;;
13108;SDS011;6620;53.734;11.510;2022-12-29T13:00:20;2.70;;;0.93;;
13108;SDS011;6620;53.734;11.510;2022-12-29T13:03:10;8.02;;;0.73;;
13108;SDS011;6620;53.734;11.510;2022-12-29T13:10:47;2.10;;;0.50;;
13108;SDS011;6620;53.734;11.510;2022-12-29T13:18:25;3.37;;;0.63;;
13108;SDS011;6620;53.734;11.510;2022-12-29T13:23:27;4.18;;;0.63;;
13108;SDS011;6620;53.734;11.510;2022-12-29T13:33:40;8.57;;;0.90;;
13108;SDS011;6620;53.734;11.510;2022-12-29T13:38:38;5.40;;;0.98;;
13108;SDS011;6620;53.734;11.510;2022-12-29T13:41:47;2.70;;;0.40;;
13108;SDS011;6620;53.734;11.510;2022-12-29T13:43:52;2.80;;;0.40;;
13108;SDS011;6620;53.734;11.510;2022-12-29T13:46:21;9.10;;;0.73;;
13108;SDS011;6620;53.734;11.510;2022-12-29T13:48:49;5.25;;;0.50;;
13108;SDS011;6620;53.734;11.510;2022-12-29T13:51:16;6.72;;;1.30;;
13108;SDS011;6620;53.734;11.510;2022-12-29T13:56:12;3.97;;;0.43;;
13108;SDS011;6620;53.734;11.510;2022-12-29T14:01:14;10.00;;;0.88;;
13108;SDS011;6620;53.734;11.510;2022-12-29T14:06:16;5.78;;;0.43;;
13108;SDS011;6620;53.734;11.510;2022-12-29T14:08:43;6.50;;;0.77;;
13108;SDS011;6620;53.734;11.510;2022-12-29T14:11:09;6.65;;;0.55;;
13108;SDS011;6620;53.734;11.510;2022-12-29T14:13:39;1.38;;;0.30;;
13108;SDS011;6620;53.734;11.510;2022-12-29T14:16:05;7.68;;;0.95;;
13108;SDS011;6620;53.734;11.510;2022-12-29T14:18:33;4.25;;;0.60;;
13108;SDS011;6620;53.734;11.510;2022-12-29T14:21:10;3.35;;;0.75;;
13108;SDS011;6620;53.734;11.510;2022-12-29T14:28:31;6.45;;;0.45;;
13108;SDS011;6620;53.734;11.510;2022-12-29T14:30:58;6.18;;;0.88;;
13108;SDS011;6620;53.734;11.510;2022-12-29T14:33:24;2.58;;;0.60;;
13108;SDS011;6620;53.734;11.510;2022-12-29T14:35:51;4.45;;;1.65;;
13108;SDS011;6620;53.734;11.510;2022-12-29T14:38:24;3.63;;;1.00;;
13108;SDS011;6620;53.734;11.510;2022-12-29T14:40:50;3.58;;;0.70;;
13108;SDS011;6620;53.734;11.510;2022-12-29T14:43:25;4.40;;;0.60;;
13108;SDS011;6620;53.734;11.510;2022-12-29T14:45:55;5.90;;;0.57;;
13108;SDS011;6620;53.734;11.510;2022-12-29T14:48:30;2.97;;;0.52;;
13108;SDS011;6620;53.734;11.510;2022-12-29T14:50:57;7.75;;;0.70;;
13108;SDS011;6620;53.734;11.510;2022-12-29T14:53:42;2.00;;;0.30;;
13108;SDS011;6620;53.734;11.510;2022-12-29T14:56:08;4.65;;;0.43;;
13108;SDS011;6620;53.734;11.510;2022-12-29T14:58:46;2.85;;;0.38;;
13108;SDS011;6620;53.734;11.510;2022-12-29T15:03:57;13.88;;;0.70;;
13108;SDS011;6620;53.734;11.510;2022-12-29T15:06:23;0.95;;;0.35;;
13108;SDS011;6620;53.734;11.510;2022-12-29T15:09:00;3.50;;;0.43;;
13108;SDS011;6620;53.734;11.510;2022-12-29T15:14:00;3.95;;;0.60;;
13108;SDS011;6620;53.734;11.510;2022-12-29T15:16:29;1.57;;;0.47;;
13108;SDS011;6620;53.734;11.510;2022-12-29T15:18:54;2.65;;;0.47;;
13108;SDS011;6620;53.734;11.510;2022-12-29T15:21:22;2.92;;;0.60;;
13108;SDS011;6620;53.734;11.510;2022-12-29T15:23:48;3.05;;;0.40;;
13108;SDS011;6620;53.734;11.510;2022-12-29T15:26:13;4.43;;;0.40;;
13108;SDS011;6620;53.734;11.510;2022-12-29T15:28:46;3.60;;;0.40;;
13108;SDS011;6620;53.734;11.510;2022-12-29T15:31:13;1.63;;;0.32;;
13108;SDS011;6620;53.734;11.510;2022-12-29T15:33:42;2.63;;;0.52;;
13108;SDS011;6620;53.734;11.510;2022-12-29T15:36:12;2.72;;;0.52;;
13108;SDS011;6620;53.734;11.510;2022-12-29T15:38:37;3.83;;;0.30;;
13108;SDS011;6620;53.734;11.510;2022-12-29T15:41:07;5.20;;;0.60;;
13108;SDS011;6620;53.734;11.510;2022-12-29T15:43:57;4.55;;;0.75;;
13108;SDS011;6620;53.734;11.510;2022-12-29T15:46:27;4.10;;;0.50;;
13108;SDS011;6620;53.734;11.510;2022-12-29T15:48:54;2.08;;;0.55;;
13108;SDS011;6620;53.734;11.510;2022-12-29T15:51:21;3.30;;;0.90;;
13108;SDS011;6620;53.734;11.510;2022-12-29T15:53:50;1.02;;;0.75;;
13108;SDS011;6620;53.734;11.510;2022-12-29T15:56:16;1.27;;;0.40;;
13108;SDS011;6620;53.734;11.510;2022-12-29T15:58:43;2.60;;;0.57;;
13108;SDS011;6620;53.734;11.510;2022-12-29T16:04:00;4.32;;;0.93;;
13108;SDS011;6620;53.734;11.510;2022-12-29T16:06:33;1.20;;;0.20;;
13108;SDS011;6620;53.734;11.510;2022-12-29T16:09:28;1.45;;;0.15;;
13108;SDS011;6620;53.734;11.510;2022-12-29T16:11:47;4.47;;;0.65;;
13108;SDS011;6620;53.734;11.510;2022-12-29T16:14:17;5.95;;;0.50;;
13108;SDS011;6620;53.734;11.510;2022-12-29T16:16:43;5.70;;;0.40;;
13108;SDS011;6620;53.734;11.510;2022-12-29T16:19:12;2.22;;;0.30;;
13108;SDS011;6620;53.734;11.510;2022-12-29T16:21:38;2.50;;;0.43;;
13108;SDS011;6620;53.734;11.510;2022-12-29T16:24:08;1.35;;;0.30;;
13108;SDS011;6620;53.734;11.510;2022-12-29T16:26:33;3.30;;;0.30;;
13108;SDS011;6620;53.734;11.510;2022-12-29T16:28:59;3.17;;;0.30;;
13108;SDS011;6620;53.734;11.510;2022-12-29T16:33:56;2.55;;;0.50;;
13108;SDS011;6620;53.734;11.510;2022-12-29T16:38:50;2.53;;;0.65;;